Time;durP1;ratioP1;P1;durP2;ratioP2;P2;SDS_P1;SDS_P2;PMS_P1;PMS_P2;Temp;Humidity;BMP_temperature;BMP_pressure;BME280_temperature;BME280_humidity;BME280_pressure;Samples;Min_cycle;Max_cycle;Signal;HPM_P1;HPM_P2
2022/12/01 00:01:06;;;;;;;23.80;16.23;;;;;;;0.26;100.00;96837.84;5023702;28;20446;-74
2022/12/01 00:03:33;;;;;;;25.63;17.30;;;;;;;0.22;100.00;96838.59;5020799;28;20438;-74
2022/12/01 00:06:02;;;;;;;23.47;17.83;;;;;;;0.06;100.00;96816.13;5047762;28;20552;-74
2022/12/01 00:08:29;;;;;;;25.93;16.83;;;;;;;0.12;100.00;96815.13;5029078;28;20549;-74
2022/12/01 00:11:06;;;;;;;21.40;15.33;;;;;;;0.36;100.00;96839.78;5028995;28;21057;-74
2022/12/01 00:13:35;;;;;;;29.27;15.50;;;;;;;0.20;100.00;96807.66;5013169;28;20946;-73
2022/12/01 00:16:15;;;;;;;23.17;15.13;;;;;;;0.30;100.00;96832.97;5035681;28;20447;-73
2022/12/01 00:18:43;;;;;;;24.43;16.33;;;;;;;0.11;100.00;96792.75;5024267;28;20972;-73
2022/12/01 00:21:13;;;;;;;25.37;15.17;;;;;;;0.31;100.00;96821.53;5032975;28;20843;-73
2022/12/01 00:23:49;;;;;;;22.43;14.10;;;;;;;0.35;100.00;96830.41;5032945;28;20454;-73
2022/12/01 00:26:17;;;;;;;25.23;15.77;;;;;;;0.38;100.00;96822.09;5016645;28;20441;-73
2022/12/01 00:28:49;;;;;;;18.80;13.60;;;;;;;0.39;100.00;96826.25;5043352;28;20442;-73
2022/12/01 00:31:15;;;;;;;21.87;13.37;;;;;;;0.25;100.00;96805.09;5042942;28;20461;-73
2022/12/01 00:33:42;;;;;;;23.47;15.33;;;;;;;0.28;100.00;96803.84;5026207;28;20458;-73
2022/12/01 00:36:09;;;;;;;19.70;14.60;;;;;;;0.27;100.00;96808.25;5033091;28;20462;-73
2022/12/01 00:38:36;;;;;;;24.87;15.77;;;;;;;0.26;100.00;96809.25;5033108;28;20496;-73
2022/12/01 00:41:03;;;;;;;22.90;15.00;;;;;;;0.16;100.00;96792.81;5025969;28;20977;-73
2022/12/01 00:43:30;;;;;;;23.30;14.27;;;;;;;0.21;100.00;96804.03;5035831;28;20553;-73
2022/12/01 00:45:56;;;;;;;21.23;16.50;;;;;;;0.02;100.00;96786.47;5032630;28;20958;-73
2022/12/01 00:48:23;;;;;;;21.53;14.67;;;;;;;0.16;100.00;96805.81;5016309;28;20494;-73
2022/12/01 00:50:51;;;;;;;26.40;16.43;;;;;;;0.20;100.00;96825.06;5032562;28;20454;-73
2022/12/01 00:53:18;;;;;;;26.43;16.43;;;;;;;-0.22;100.00;96796.38;5033757;28;20804;-73
2022/12/01 00:55:45;;;;;;;23.33;16.30;;;;;;;-0.28;100.00;96805.13;5016051;28;20435;-73
2022/12/01 00:58:12;;;;;;;21.93;15.13;;;;;;;-0.38;100.00;96806.63;5045862;28;20427;-73
2022/12/01 01:00:38;;;;;;;24.90;16.20;;;;;;;-0.27;100.00;96824.88;5032649;28;20458;-73
2022/12/01 01:03:05;;;;;;;26.00;16.27;;;;;;;-0.39;100.00;96814.66;5037215;28;20536;-73
2022/12/01 01:05:36;;;;;;;20.00;15.53;;;;;;;-0.20;100.00;96833.28;5053865;28;20878;-73
2022/12/01 01:08:11;;;;;;;23.40;14.30;;;;;;;-0.35;100.00;96800.94;5017050;28;20478;-73
2022/12/01 01:10:40;;;;;;;22.53;15.87;;;;;;;-0.15;100.00;96835.91;5032182;28;20544;-73
2022/12/01 01:13:07;;;;;;;23.67;14.57;;;;;;;-0.09;100.00;96840.94;5032341;28;21017;-73
2022/12/01 01:15:34;;;;;;;25.00;14.77;;;;;;;-0.13;100.00;96832.06;5032116;28;20444;-73
2022/12/01 01:18:01;;;;;;;22.03;13.80;;;;;;;-0.16;100.00;96834.34;5033393;28;20436;-73
2022/12/01 01:20:27;;;;;;;20.47;14.20;;;;;;;-0.14;100.00;96835.66;5031936;28;20500;-73
2022/12/01 01:22:54;;;;;;;20.63;13.70;;;;;;;-0.34;100.00;96812.88;5032019;28;20537;-73
2022/12/01 01:25:21;;;;;;;21.53;14.57;;;;;;;-0.17;100.00;96825.78;5031918;28;20468;-73
2022/12/01 01:27:48;;;;;;;24.57;14.87;;;;;;;-0.33;100.00;96811.06;5032147;28;20437;-73
2022/12/01 01:30:16;;;;;;;22.80;14.50;;;;;;;-0.40;100.00;96797.47;5023627;28;20469;-73
2022/12/01 01:32:42;;;;;;;22.00;14.90;;;;;;;-0.44;100.00;96815.38;5031769;28;20890;-73
2022/12/01 01:35:09;;;;;;;22.20;13.67;;;;;;;-0.38;100.00;96822.19;5033457;28;20448;-73
2022/12/01 01:37:35;;;;;;;20.00;13.70;;;;;;;-0.23;100.00;96829.38;5043221;28;20465;-73
2022/12/01 01:40:03;;;;;;;22.43;14.57;;;;;;;-0.25;100.00;96839.22;5015162;28;20463;-73
2022/12/01 01:42:30;;;;;;;21.70;14.47;;;;;;;-0.28;100.00;96834.50;5015453;28;20438;-73
2022/12/01 01:44:57;;;;;;;19.40;13.73;;;;;;;-0.31;100.00;96845.38;5031448;28;20438;-74
2022/12/01 01:47:29;;;;;;;18.07;13.30;;;;;;;-0.39;100.00;96844.00;5032900;28;20521;-74
2022/12/01 01:50:04;;;;;;;21.07;14.37;;;;;;;-0.40;100.00;96836.44;5035871;28;20475;-74
2022/12/01 01:52:33;;;;;;;19.20;13.70;;;;;;;-0.42;100.00;96839.28;5034856;28;20490;-74
2022/12/01 01:54:59;;;;;;;19.30;13.80;;;;;;;-0.83;100.00;96798.28;5052875;28;20435;-74
2022/12/01 01:57:30;;;;;;;20.60;14.23;;;;;;;-0.88;100.00;96831.97;5039954;28;20434;-74
2022/12/01 02:00:03;;;;;;;21.20;14.40;;;;;;;-0.84;100.00;96828.66;5036501;28;20448;-74
2022/12/01 02:02:43;;;;;;;20.97;14.93;;;;;;;-0.93;100.00;96820.53;5038634;28;20464;-74
2022/12/01 02:05:23;;;;;;;17.13;12.53;;;;;;;-0.87;100.00;96833.56;5014868;28;20442;-74
2022/12/01 02:07:52;;;;;;;26.63;14.90;;;;;;;-0.89;100.00;96826.00;5048918;28;20909;-74
2022/12/01 02:10:22;;;;;;;21.70;15.40;;;;;;;-0.97;100.00;96821.22;5040889;28;20469;-74
2022/12/01 02:13:14;;;;;;;18.00;11.70;;;;;;;-0.96;100.00;96815.00;5031000;28;20442;-74
2022/12/01 02:15:46;;;;;;;22.37;11.83;;;;;;;-1.46;100.00;96760.66;5031049;28;20417;-74
2022/12/01 02:18:33;;;;;;;19.83;12.80;;;;;;;-1.05;100.00;96817.25;5031065;28;20430;-74
2022/12/01 02:21:06;;;;;;;17.37;12.50;;;;;;;-0.94;100.00;96828.53;5030710;28;20469;-74
2022/12/01 02:23:57;;;;;;;19.37;14.27;;;;;;;-1.14;100.00;96826.47;5031051;28;20805;-74
2022/12/01 02:26:42;;;;;;;19.40;12.50;;;;;;;-1.22;100.00;96817.25;5030911;28;20903;-74
2022/12/01 02:29:12;;;;;;;19.33;13.07;;;;;;;-1.14;100.00;96818.69;5037431;28;20961;-74
2022/12/01 02:31:46;;;;;;;20.00;13.43;;;;;;;-1.07;100.00;96826.28;5016669;28;20639;-74
2022/12/01 02:34:28;;;;;;;18.20;12.50;;;;;;;-1.02;100.00;96824.53;5043700;28;20507;-74
2022/12/01 02:37:04;;;;;;;18.07;11.57;;;;;;;-1.19;100.00;96808.25;5032057;28;20436;-74
2022/12/01 02:39:37;;;;;;;20.80;12.27;;;;;;;-1.36;100.00;96800.47;5030198;28;20458;-74
2022/12/01 02:42:47;;;;;;;16.50;11.87;;;;;;;-1.49;100.00;96808.56;5014644;28;20802;-74
2022/12/01 02:45:04;;;;;;;19.80;11.50;;;;;;;-1.33;100.00;96825.94;5043802;28;20443;-74
2022/12/01 02:47:32;;;;;;;19.80;13.90;;;;;;;-1.46;100.00;96804.75;5031772;28;20948;-74
2022/12/01 02:50:01;;;;;;;18.20;12.77;;;;;;;-1.40;100.00;96827.13;5030050;28;21020;-74
2022/12/01 02:52:29;;;;;;;21.17;13.77;;;;;;;-1.62;100.00;96788.94;5023836;28;20896;-74
2022/12/01 02:54:56;;;;;;;21.33;13.93;;;;;;;-1.46;100.00;96809.94;5050096;28;20433;-74
2022/12/01 02:57:23;;;;;;;18.53;12.53;;;;;;;-1.40;100.00;96819.34;5050400;28;20980;-74
2022/12/01 02:59:53;;;;;;;24.27;12.50;;;;;;;-1.31;100.00;96828.31;5033504;28;20896;-74
2022/12/01 03:02:42;;;;;;;19.17;13.10;;;;;;;-1.59;100.00;96785.91;5051041;28;20487;-74
2022/12/01 03:05:13;;;;;;;18.63;12.40;;;;;;;-1.39;100.00;96815.72;5053271;28;20426;-74
2022/12/01 03:08:18;;;;;;;19.50;11.47;;;;;;;-1.34;100.00;96820.97;5049854;28;20534;-74
2022/12/01 03:10:52;;;;;;;20.97;13.03;;;;;;;-1.39;100.00;96824.28;5036900;28;20894;-74
2022/12/01 03:14:08;;;;;;;20.00;12.90;;;;;;;-1.60;100.00;96799.09;5001423;28;20441;-73
2022/12/01 03:16:52;;;;;;;24.70;13.40;;;;;;;-1.45;100.00;96820.06;5021672;28;20438;-73
2022/12/01 03:19:36;;;;;;;17.33;12.30;;;;;;;-1.45;100.00;96816.69;5034510;28;20448;-73
2022/12/01 03:22:23;;;;;;;18.17;12.43;;;;;;;-1.42;100.00;96821.38;5037264;28;20449;-74
2022/12/01 03:24:54;;;;;;;19.97;11.70;;;;;;;-1.47;100.00;96811.72;5029875;28;20820;-74
2022/12/01 03:27:28;;;;;;;19.40;13.37;;;;;;;-1.42;100.00;96821.38;5031080;28;20923;-74
2022/12/01 03:29:58;;;;;;;15.53;12.20;;;;;;;-1.64;100.00;96823.91;5029607;28;20601;-73
2022/12/01 03:32:42;;;;;;;18.90;12.63;;;;;;;-1.86;100.00;96787.56;5013225;28;20442;-73
2022/12/01 03:35:16;;;;;;;18.27;12.97;;;;;;;-1.96;100.00;96769.25;5031169;28;20616;-74
2022/12/01 03:38:07;;;;;;;20.70;14.10;;;;;;;-1.70;100.00;96810.09;5039689;28;20887;-74
2022/12/01 03:40:36;;;;;;;17.37;12.50;;;;;;;-1.86;100.00;96761.66;5049473;28;20483;-74
2022/12/01 03:43:08;;;;;;;18.53;13.47;;;;;;;-1.90;100.00;96753.53;5032955;28;20452;-74
2022/12/01 03:46:02;;;;;;;19.10;12.27;;;;;;;-1.45;100.00;96807.09;5000968;28;21019;-74
2022/12/01 03:48:30;;;;;;;16.03;11.97;;;;;;;-1.59;100.00;96801.44;5055456;28;20446;-74
2022/12/01 03:51:20;;;;;;;18.23;11.60;;;;;;;-1.53;100.00;96808.28;5021104;28;20490;-74
2022/12/01 03:54:18;;;;;;;14.27;11.00;;;;;;;-1.61;100.00;96803.47;5017931;28;20422;-74
2022/12/01 03:56:54;;;;;;;16.93;12.67;;;;;;;-1.70;100.00;96793.75;5034910;28;20942;-74
2022/12/01 03:59:23;;;;;;;19.67;11.47;;;;;;;-1.72;100.00;96790.63;5049066;28;20551;-74
2022/12/01 04:01:50;;;;;;;18.90;14.80;;;;;;;-1.74;100.00;96779.69;5049078;28;20479;-74
2022/12/01 04:04:17;;;;;;;17.93;13.30;;;;;;;-1.64;100.00;96798.78;5049085;28;20449;-74
2022/12/01 04:06:47;;;;;;;21.13;14.90;;;;;;;-1.74;100.00;96782.28;5032849;28;20930;-74
2022/12/01 04:09:14;;;;;;;21.00;13.40;;;;;;;-1.57;100.00;96801.22;5049106;28;20923;-73
2022/12/01 04:14:26;;;;;;;18.50;13.00;;;;;;;-1.62;100.00;96783.75;5049279;28;20455;-73
2022/12/01 04:16:52;;;;;;;21.90;13.10;;;;;;;-1.61;100.00;96779.34;5050392;28;20426;-73
2022/12/01 04:19:19;;;;;;;17.80;12.90;;;;;;;-1.35;100.00;96809.81;5048975;28;20482;-73
2022/12/01 04:21:46;;;;;;;22.10;13.47;;;;;;;-1.32;100.00;96816.34;5032431;28;20872;-73
2022/12/01 04:24:12;;;;;;;20.27;13.80;;;;;;;-1.38;100.00;96814.69;5014390;28;20529;-73
2022/12/01 04:26:39;;;;;;;24.00;13.60;;;;;;;-1.33;100.00;96804.41;5030368;28;20430;-73
2022/12/01 04:29:08;;;;;;;18.77;14.17;;;;;;;-1.47;100.00;96783.19;5012516;28;20470;-73
2022/12/01 04:31:35;;;;;;;19.83;14.23;;;;;;;-1.41;100.00;96771.09;5036488;28;20437;-73
2022/12/01 04:34:02;;;;;;;25.67;14.60;;;;;;;-1.10;100.00;96811.97;5050065;28;20516;-73
2022/12/01 04:36:31;;;;;;;21.57;13.70;;;;;;;-0.99;100.00;96805.91;5032368;28;20441;-73
2022/12/01 04:38:58;;;;;;;24.27;15.43;;;;;;;-0.87;100.00;96798.00;5030131;28;20421;-73
2022/12/01 04:41:25;;;;;;;23.40;15.50;;;;;;;-0.99;100.00;96785.13;5042080;28;20859;-73
2022/12/01 04:43:53;;;;;;;22.87;13.90;;;;;;;-1.09;100.00;96769.44;5048817;28;20491;-73
2022/12/01 04:46:20;;;;;;;22.40;15.97;;;;;;;-0.86;100.00;96791.00;5048604;28;20914;-74
2022/12/01 04:48:47;;;;;;;24.60;16.60;;;;;;;-0.95;100.00;96808.78;5050178;28;20881;-73
2022/12/01 04:51:14;;;;;;;26.63;15.77;;;;;;;-1.23;100.00;96778.59;5048671;28;20536;-73
2022/12/01 04:53:41;;;;;;;31.07;19.70;;;;;;;-1.18;100.00;96785.69;5050025;28;20429;-73
2022/12/01 04:56:07;;;;;;;31.37;20.03;;;;;;;-1.25;100.00;96775.47;5034205;28;20472;-73
2022/12/01 04:58:36;;;;;;;22.63;16.07;;;;;;;-1.15;100.00;96798.16;5012424;28;20434;-73
2022/12/01 05:01:05;;;;;;;34.97;20.47;;;;;;;-1.13;100.00;96796.91;5030970;28;20454;-73
2022/12/01 05:03:38;;;;;;;27.13;18.13;;;;;;;-1.11;100.00;96794.06;5032288;28;20430;-74
2022/12/01 05:06:11;;;;;;;27.30;17.57;;;;;;;-1.20;100.00;96789.31;5032457;28;20466;-74
2022/12/01 05:08:38;;;;;;;28.60;17.20;;;;;;;-1.28;100.00;96796.69;5032431;28;20425;-74
2022/12/01 05:11:06;;;;;;;33.80;20.03;;;;;;;-1.41;100.00;96771.09;5032129;28;20492;-74
2022/12/01 05:13:36;;;;;;;32.43;20.40;;;;;;;-1.29;100.00;96789.94;5033532;28;20430;-74
2022/12/01 05:16:08;;;;;;;33.33;19.13;;;;;;;-1.25;100.00;96798.81;5015710;28;20431;-74
2022/12/01 05:18:34;;;;;;;32.93;19.67;;;;;;;-1.34;100.00;96784.66;5033491;28;20496;-74
2022/12/01 05:21:03;;;;;;;28.13;16.60;;;;;;;-1.27;100.00;96801.63;5015528;28;20521;-74
2022/12/01 05:23:32;;;;;;;31.00;19.83;;;;;;;-1.25;100.00;96797.00;5032309;28;20805;-74
2022/12/01 05:26:00;;;;;;;32.43;18.97;;;;;;;-1.23;100.00;96799.34;5015562;28;20441;-74
2022/12/01 05:28:27;;;;;;;35.70;19.37;;;;;;;-1.37;100.00;96775.56;5032103;28;20430;-74
2022/12/01 05:30:54;;;;;;;25.43;17.87;;;;;;;-1.28;100.00;96783.72;5031925;28;20504;-74
2022/12/01 05:33:27;;;;;;;28.93;18.87;;;;;;;-1.19;100.00;96787.50;5015761;28;20450;-74
2022/12/01 05:35:54;;;;;;;34.77;19.17;;;;;;;-1.27;100.00;96777.50;5019972;28;20839;-74
2022/12/01 05:38:20;;;;;;;34.37;20.70;;;;;;;-1.17;100.00;96790.63;5046101;28;20821;-74
2022/12/01 05:40:52;;;;;;;29.53;19.07;;;;;;;-1.06;100.00;96796.72;5035050;28;20452;-74
2022/12/01 05:43:20;;;;;;;31.33;19.07;;;;;;;-1.06;100.00;96791.53;5034886;28;20433;-74
2022/12/01 05:45:54;;;;;;;28.83;20.60;;;;;;;-1.01;100.00;96789.00;5021754;28;20800;-74
2022/12/01 05:48:21;;;;;;;26.87;18.03;;;;;;;-1.34;100.00;96764.69;5035081;28;20442;-74
2022/12/01 05:50:47;;;;;;;28.40;20.47;;;;;;;-1.23;100.00;96792.34;5052567;28;20821;-74
2022/12/01 05:53:14;;;;;;;35.83;22.00;;;;;;;-1.18;100.00;96809.03;5034742;28;20532;-74
2022/12/01 05:55:41;;;;;;;45.13;30.10;;;;;;;-1.27;100.00;96793.84;5051340;28;20421;-74
2022/12/01 05:58:09;;;;;;;72.43;39.97;;;;;;;-1.40;100.00;96780.44;5052524;28;20456;-73
2022/12/01 06:00:37;;;;;;;82.77;41.50;;;;;;;-1.54;100.00;96747.06;5034525;28;21002;-73
2022/12/01 06:03:11;;;;;;;43.20;24.70;;;;;;;-1.45;100.00;96762.25;5035895;28;20441;-74
2022/12/01 06:05:38;;;;;;;45.03;26.20;;;;;;;-1.28;100.00;96792.28;5052459;28;20445;-74
2022/12/01 06:08:05;;;;;;;42.30;24.03;;;;;;;-1.37;100.00;96770.38;5045309;28;20438;-73
2022/12/01 06:10:32;;;;;;;33.63;20.37;;;;;;;-1.45;100.00;96763.03;5031015;28;20501;-73
2022/12/01 06:12:58;;;;;;;29.27;15.40;;;;;;;-1.17;100.00;96785.44;5049421;28;20961;-74
2022/12/01 06:15:26;;;;;;;34.50;21.13;;;;;;;-1.05;100.00;96790.53;5034454;28;20433;-73
2022/12/01 06:17:53;;;;;;;33.93;21.23;;;;;;;-1.18;100.00;96765.72;5014756;28;20439;-73
2022/12/01 06:20:19;;;;;;;32.17;19.57;;;;;;;-1.12;100.00;96780.31;5027465;28;20463;-73
2022/12/01 06:22:46;;;;;;;35.63;19.10;;;;;;;-1.10;100.00;96761.91;5045667;28;20430;-73
2022/12/01 06:25:12;;;;;;;30.23;18.93;;;;;;;-1.15;100.00;96796.34;5030798;28;20445;-73
2022/12/01 06:27:39;;;;;;;39.50;20.70;;;;;;;-1.31;100.00;96790.19;5014487;28;20541;-73
2022/12/01 06:30:06;;;;;;;28.43;19.10;;;;;;;-1.28;100.00;96783.72;5026166;28;20477;-73
2022/12/01 06:32:33;;;;;;;26.43;19.20;;;;;;;-1.21;100.00;96792.88;5050907;28;20440;-73
2022/12/01 06:35:00;;;;;;;28.47;18.03;;;;;;;-0.91;100.00;96815.09;5020492;28;20478;-73
2022/12/01 06:37:27;;;;;;;24.77;18.43;;;;;;;-0.98;100.00;96791.91;5030702;28;20439;-73
2022/12/01 06:39:54;;;;;;;26.40;19.33;;;;;;;-0.96;100.00;96805.41;5043964;28;20891;-73
2022/12/01 06:42:20;;;;;;;25.00;16.93;;;;;;;-0.94;100.00;96810.34;5030705;28;20426;-73
2022/12/01 06:44:47;;;;;;;30.67;17.87;;;;;;;-1.06;100.00;96789.75;5033153;28;20454;-73
2022/12/01 06:47:14;;;;;;;29.37;18.67;;;;;;;-1.00;100.00;96809.53;5030401;28;20434;-76
2022/12/01 06:49:41;;;;;;;30.43;18.40;;;;;;;-1.34;100.00;96754.34;5043972;28;20477;-76
2022/12/01 06:52:08;;;;;;;29.90;19.60;;;;;;;-1.21;100.00;96829.19;5032047;28;20462;-75
2022/12/01 06:54:36;;;;;;;27.87;18.23;;;;;;;-1.23;100.00;96800.13;5014931;28;20556;-76
2022/12/01 06:57:03;;;;;;;30.80;21.67;;;;;;;-1.06;100.00;96820.09;5030669;28;20469;-76
2022/12/01 06:59:30;;;;;;;28.70;19.57;;;;;;;-1.16;100.00;96807.75;5030265;28;20469;-76
2022/12/01 07:01:57;;;;;;;31.37;20.47;;;;;;;-1.36;100.00;96784.91;5023209;28;20441;-76
2022/12/01 07:04:23;;;;;;;34.03;18.70;;;;;;;-1.12;100.00;96834.78;5036998;28;20488;-76
2022/12/01 07:06:50;;;;;;;26.70;17.83;;;;;;;-1.16;100.00;96809.56;5021594;28;20568;-76
2022/12/01 07:09:17;;;;;;;22.50;17.47;;;;;;;-1.08;100.00;96824.69;5039356;28;20464;-75
2022/12/01 07:11:43;;;;;;;29.57;18.33;;;;;;;-1.59;100.00;96783.31;5014015;28;20449;-74
2022/12/01 07:14:19;;;;;;;32.30;18.60;;;;;;;-1.20;100.00;96840.41;5046670;28;20440;-73
2022/12/01 07:16:45;;;;;;;32.33;17.43;;;;;;;-1.40;100.00;96798.59;5049878;28;20977;-74
2022/12/01 07:19:12;;;;;;;37.07;21.30;;;;;;;-1.32;100.00;96816.34;5016347;28;20481;-74
2022/12/01 07:21:39;;;;;;;42.57;22.80;;;;;;;-1.46;100.00;96797.75;5010059;28;20439;-74
2022/12/01 07:24:06;;;;;;;37.67;22.03;;;;;;;-1.43;100.00;96799.06;5014627;28;20909;-74
2022/12/01 07:26:32;;;;;;;40.07;22.90;;;;;;;-1.14;100.00;96831.66;5049512;28;20445;-74
2022/12/01 07:28:59;;;;;;;31.07;21.73;;;;;;;-1.29;100.00;96806.28;5015501;28;20445;-74
2022/12/01 07:31:26;;;;;;;39.60;24.17;;;;;;;-1.11;100.00;96804.44;5030780;28;20458;-74
2022/12/01 07:33:52;;;;;;;37.43;23.07;;;;;;;-0.99;100.00;96842.22;5030921;28;20431;-74
2022/12/01 07:36:19;;;;;;;40.07;23.77;;;;;;;-0.96;100.00;96826.16;5029597;28;20450;-74
2022/12/01 07:38:46;;;;;;;35.13;21.17;;;;;;;-0.80;100.00;96834.97;5029280;28;20540;-74
2022/12/01 07:41:17;;;;;;;30.87;22.47;;;;;;;-0.82;100.00;96826.59;5045971;28;20426;-74
2022/12/01 07:43:45;;;;;;;34.00;20.93;;;;;;;-0.68;100.00;96832.22;5029330;28;20438;-74
2022/12/01 07:46:14;;;;;;;27.70;20.33;;;;;;;-0.66;100.00;96838.75;5024938;28;20532;-74
2022/12/01 07:48:48;;;;;;;29.93;23.80;;;;;;;-0.72;100.00;96815.56;5049007;28;20435;-74
2022/12/01 07:51:16;;;;;;;35.33;22.50;;;;;;;-0.60;100.00;96837.78;5050241;28;20464;-74
2022/12/01 07:53:44;;;;;;;39.37;25.47;;;;;;;-0.60;100.00;96830.00;5029317;28;20456;-74
2022/12/01 07:56:11;;;;;;;36.63;23.97;;;;;;;-0.61;100.00;96831.03;5038144;28;20410;-74
2022/12/01 07:58:38;;;;;;;41.80;26.13;;;;;;;-0.70;100.00;96822.06;5035245;28;20521;-74
2022/12/01 08:01:11;;;;;;;43.50;27.00;;;;;;;-0.52;100.00;96836.59;5031542;28;20450;-74
2022/12/01 08:03:38;;;;;;;39.67;25.00;;;;;;;-0.50;100.00;96839.72;5029624;28;20426;-74
2022/12/01 08:06:06;;;;;;;39.13;24.73;;;;;;;-0.62;100.00;96800.13;5029264;28;20432;-74
2022/12/01 08:08:34;;;;;;;37.10;24.27;;;;;;;-0.31;100.00;96850.56;5029420;28;20429;-74
2022/12/01 08:11:04;;;;;;;41.90;27.63;;;;;;;-0.25;100.00;96844.41;5044597;28;20472;-74
2022/12/01 08:13:30;;;;;;;37.57;23.83;;;;;;;-0.97;100.00;96738.97;5039802;28;20883;-74
2022/12/01 08:15:57;;;;;;;37.33;26.17;;;;;;;-0.29;100.00;96840.72;5029099;28;20439;-73
2022/12/01 08:18:24;;;;;;;40.17;24.03;;;;;;;-0.35;100.00;96837.28;5030601;28;20493;-73
2022/12/01 08:20:50;;;;;;;45.90;27.40;;;;;;;-0.41;100.00;96824.47;5028902;28;20503;-73
2022/12/01 08:23:17;;;;;;;46.60;30.90;;;;;;;-0.24;100.00;96845.19;5030388;28;20948;-73
2022/12/01 08:25:44;;;;;;;57.53;30.70;;;;;;;-0.45;100.00;96811.19;5029020;28;20795;-73
2022/12/01 08:28:10;;;;;;;44.97;26.40;;;;;;;-0.25;100.00;96822.84;5029168;28;20448;-73
2022/12/01 08:30:37;;;;;;;38.03;25.43;;;;;;;-0.13;100.00;96841.69;5011465;28;20560;-73
2022/12/01 08:33:03;;;;;;;42.63;27.13;;;;;;;-0.20;100.00;96818.47;5049345;28;20819;-73
2022/12/01 08:35:32;;;;;;;44.27;27.50;;;;;;;-0.26;100.00;96808.28;5049221;28;20422;-73
2022/12/01 08:37:59;;;;;;;42.40;29.00;;;;;;;-0.13;100.00;96808.69;5036352;28;21346;-73
2022/12/01 08:40:25;;;;;;;41.90;26.47;;;;;;;0.26;100.00;96857.88;5036230;28;20449;-73
2022/12/01 08:42:52;;;;;;;42.70;28.07;;;;;;;0.28;100.00;96840.25;5053079;28;20809;-73
2022/12/01 08:45:19;;;;;;;37.03;25.10;;;;;;;0.23;100.00;96824.56;5034365;28;20442;-73
2022/12/01 08:47:46;;;;;;;45.87;26.03;;;;;;;0.22;100.00;96805.59;5016475;28;20532;-73
2022/12/01 08:50:13;;;;;;;40.13;24.77;;;;;;;0.43;100.00;96829.16;5016105;28;20470;-73
2022/12/01 08:52:39;;;;;;;37.13;24.50;;;;;;;0.57;100.00;96843.31;5032801;28;20454;-73
2022/12/01 08:55:07;;;;;;;44.60;27.10;;;;;;;0.27;100.00;96802.28;5046440;28;20470;-73
2022/12/01 08:57:33;;;;;;;45.90;26.00;;;;;;;0.65;100.00;96849.88;5033038;28;21024;-73
2022/12/01 09:00:00;;;;;;;40.03;25.03;;;;;;;0.70;100.00;96860.31;5016185;28;20556;-73
2022/12/01 09:02:27;;;;;;;34.47;23.07;;;;;;;0.73;100.00;96852.00;5016203;28;20450;-73
2022/12/01 09:04:54;;;;;;;40.63;23.70;;;;;;;0.71;100.00;96841.06;5022044;28;20429;-73
2022/12/01 09:07:21;;;;;;;35.63;22.57;;;;;;;0.75;100.00;96836.94;5052271;28;20852;-73
2022/12/01 09:09:52;;;;;;;37.57;23.37;;;;;;;0.91;100.00;96849.00;5046890;28;20442;-73
2022/12/01 09:12:19;;;;;;;35.00;23.67;;;;;;;0.89;100.00;96844.06;5032408;28;20861;-73
2022/12/01 09:14:48;;;;;;;34.17;22.30;;;;;;;1.08;100.00;96856.66;5032189;28;20453;-73
2022/12/01 09:17:16;;;;;;;36.07;21.37;;;;;;;1.17;100.00;96865.56;5015957;28;20492;-74
2022/12/01 09:19:43;;;;;;;29.93;20.40;;;;;;;1.05;100.00;96842.31;5032425;28;20460;-74
2022/12/01 09:22:10;;;;;;;37.27;21.90;;;;;;;1.34;100.00;96860.97;5032014;28;20544;-74
2022/12/01 09:24:38;;;;;;;37.00;22.90;;;;;;;1.51;100.00;96873.03;5015743;28;20481;-74
2022/12/01 09:27:05;;;;;;;36.03;23.30;;;;;;;1.43;100.00;96856.81;5047466;28;20429;-74
2022/12/01 09:29:32;;;;;;;35.33;22.77;;;;;;;1.13;100.00;96810.59;5052076;28;20457;-74
2022/12/01 09:31:59;;;;;;;33.20;20.87;;;;;;;1.55;100.00;96859.22;5031801;28;20633;-74
2022/12/01 09:34:27;;;;;;;29.77;20.57;;;;;;;1.59;100.00;96868.09;5032193;28;20477;-74
2022/12/01 09:36:57;;;;;;;28.47;20.20;;;;;;;1.82;100.00;96889.56;5034188;28;20430;-74
2022/12/01 09:39:24;;;;;;;27.70;19.70;;;;;;;1.71;100.00;96855.63;5053726;28;20807;-74
2022/12/01 09:42:11;;;;;;;27.50;18.00;;;;;;;2.08;100.00;96891.19;5036714;28;20533;-74
2022/12/01 09:44:43;;;;;;;25.17;16.97;;;;;;;2.25;100.00;96888.34;5031756;28;20453;-74
2022/12/01 09:47:13;;;;;;;22.40;15.17;;;;;;;2.17;100.00;96858.34;5020860;28;20895;-74
2022/12/01 09:49:50;;;;;;;22.93;15.47;;;;;;;2.38;100.00;96882.63;5052683;28;20464;-74
2022/12/01 09:52:18;;;;;;;22.10;14.77;;;;;;;2.56;100.00;96889.97;5042938;28;20442;-74
2022/12/01 09:54:48;;;;;;;21.03;14.33;;;;;;;2.31;100.00;96841.16;5031345;28;20973;-74
2022/12/01 09:57:27;;;;;;;19.27;14.37;;;;;;;2.53;100.00;96868.81;5031648;28;20435;-74
2022/12/01 09:59:55;;;;;;;21.70;12.33;;;;;;;2.35;100.00;96830.97;5032800;28;20460;-74
2022/12/01 10:02:28;;;;;;;21.90;13.90;;;;;;;2.75;100.00;96871.16;5015248;28;20456;-74
2022/12/01 10:04:57;;;;;;;19.33;12.93;;;;;;;2.80;100.00;96869.31;5031503;28;20461;-74
2022/12/01 10:07:31;;;;;;;20.70;13.40;;;;;;;2.70;100.00;96845.06;5031242;28;20460;-74
2022/12/01 10:10:01;;;;;;;20.47;13.43;;;;;;;2.77;100.00;96874.28;5014843;28;20465;-74
2022/12/01 10:12:32;;;;;;;19.63;15.80;;;;;;;2.62;100.00;96856.81;5033125;28;20434;-74
2022/12/01 10:15:14;;;;;;;17.00;11.60;;;;;;;2.79;100.00;96872.97;5040750;28;20444;-74
2022/12/01 10:18:01;;;;;;;20.23;12.77;;;;;;;2.57;100.00;96849.78;5046927;28;20434;-74
2022/12/01 10:20:43;;;;;;;20.90;12.90;;;;;;;2.75;100.00;96877.16;5030918;28;20470;-74
2022/12/01 10:23:28;;;;;;;22.40;13.90;;;;;;;2.81;100.00;96868.28;5031097;28;20442;-74
2022/12/01 10:25:58;;;;;;;18.50;11.97;;;;;;;2.98;100.00;96865.41;5014633;28;20430;-74
2022/12/01 10:28:31;;;;;;;18.87;11.53;;;;;;;2.83;100.00;96836.69;5032594;28;20669;-74
2022/12/01 10:31:18;;;;;;;17.80;12.67;;;;;;;2.71;100.00;96817.91;5022464;28;20470;-74
2022/12/01 10:33:57;;;;;;;18.73;12.03;;;;;;;2.90;100.00;96851.03;5048697;28;20422;-74
2022/12/01 10:36:25;;;;;;;27.50;13.70;;;;;;;2.88;100.00;96839.28;5050682;28;20430;-74
2022/12/01 10:38:52;;;;;;;20.80;13.33;;;;;;;2.74;100.00;96828.59;5050513;28;20452;-74
2022/12/01 10:41:22;;;;;;;18.30;12.70;;;;;;;2.97;100.00;96863.84;5034233;28;20476;-74
2022/12/01 10:43:52;;;;;;;22.87;13.23;;;;;;;2.87;100.00;96838.50;5033869;28;20434;-74
2022/12/01 10:46:27;;;;;;;18.03;12.83;;;;;;;3.17;100.00;96852.53;5050757;28;20560;-74
2022/12/01 10:49:06;;;;;;;17.77;12.07;;;;;;;3.14;100.00;96851.25;5018591;28;20438;-74
2022/12/01 10:51:45;;;;;;;18.10;12.43;;;;;;;3.12;100.00;96858.56;5030785;28;20552;-74
2022/12/01 10:54:12;;;;;;;16.73;11.20;;;;;;;3.12;100.00;96852.56;5032095;28;20771;-75
2022/12/01 10:56:41;;;;;;;16.10;12.00;;;;;;;3.20;100.00;96857.22;5048611;28;20445;-75
2022/12/01 10:59:23;;;;;;;15.57;10.83;;;;;;;3.09;100.00;96850.50;5033508;28;20461;-74
2022/12/01 11:01:50;;;;;;;17.00;12.07;;;;;;;2.80;100.00;96813.69;5050240;28;20456;-75
2022/12/01 11:04:34;;;;;;;15.97;11.73;;;;;;;3.20;100.00;96854.63;5032900;28;20803;-74
2022/12/01 11:07:02;;;;;;;15.23;12.27;;;;;;;2.97;100.00;96817.59;5030493;28;21172;-74
2022/12/01 11:09:30;;;;;;;22.00;13.67;;;;;;;3.10;100.00;96831.16;5030382;28;20449;-74
2022/12/01 11:11:59;;;;;;;24.40;14.83;;;;;;;3.07;100.00;96831.66;5030371;28;20584;-74
2022/12/01 11:14:48;;;;;;;21.60;13.47;;;;;;;3.23;100.00;96847.06;5035946;28;20436;-74
2022/12/01 11:17:33;;;;;;;14.03;12.37;;;;;;;3.20;100.00;96842.34;5036228;28;20837;-74
2022/12/01 11:20:27;;;;;;;17.43;13.13;;;;;;;3.22;100.00;96848.09;5003996;28;20838;-74
2022/12/01 11:23:08;;;;;;;15.13;11.53;;;;;;;3.27;100.00;96852.53;5017596;28;20422;-74
2022/12/01 11:25:35;;;;;;;20.57;14.23;;;;;;;3.22;100.00;96834.25;5029963;28;20462;-74
2022/12/01 11:28:03;;;;;;;16.77;13.67;;;;;;;3.18;100.00;96833.22;5029935;28;20953;-74
2022/12/01 11:30:31;;;;;;;23.37;13.90;;;;;;;2.88;100.00;96784.47;5029618;28;20481;-74